Java, SD (57452)

5:23 PM CDT on September 29, 2016 (GMT -0500)
Mobridge Municipal | | Change Station

Elev 1716 ft 45.55 °N, 100.41 °W | Updated 31 minutes ago

Clear
Clear
74 °F
Feels Like 74 °F
N
20
Wind Variable Wind from SSE
Gusts 24 mph

Today
High -- | Low -- °F
--% Chance of Precip.
Yesterday
High -- | Low -- °F
Precip. -- in
Pressure 30.25 in
Visibility 10.0 miles
Clouds Clear
Dew Point 39 °F
Humidity 28%
Rainfall 0.00 in
Snow Depth Not available.
7:35 AM 7:22 PM
Waning Crescent, 1% visible
METAR KMBG 292152Z AUTO 15017G21KT 10SM CLR 23/04 A3025 RMK AO2 SLP241 T02330039
Pressure 30.25 in
Visibility 10.0 miles
Clouds Clear
Dew Point 39 °F
Humidity 28%
Rainfall 0.00 in
Snow Depth Not available.
7:35 AM 7:22 PM
Waning Crescent, 1% visible
METAR KMBG 292152Z AUTO 15017G21KT 10SM CLR 23/04 A3025 RMK AO2 SLP241 T02330039

10-Day Weather Forecast

Almanac

Astronomy

Sep. 29, 2016 Rise Set
Actual Time
Civil Twilight
Nautical Twilight
Astronomical Twilight
Moon
Length of Visible Light
Length of Day
Tomorrow will be .
, % of the Moon is Illuminated

Today's Extremes

State Highs State Lows

Community

WunderPhotos

Upload Photos

1,942,591 photos uploaded!

WunderBlog® & News

Nearby

Air Quality

  Air Quality AQ Index Pollutant
Not available.

Snow Depth

Station Depth Elevation

Earthquake Activity

City Distance Mag. Time & Date
Minimum magnitude displayed is 2.5.

Coastal Water Temperatures

Place Temperature

Stations

Nearby Weather Stations

Station Location Temp. Windchill Dew Point Humidity Wind Precip. Elev Updated Type
                   

Watches & Warnings

There are currently no watches in effect.